Time;durP1;ratioP1;P1;durP2;ratioP2;P2;SDS_P1;SDS_P2;PMS_P1;PMS_P2;Temp;Humidity;BMP_temperature;BMP_pressure;BME280_temperature;BME280_humidity;BME280_pressure;Samples;Min_cycle;Max_cycle;Signal;HPM_P1;HPM_P2
2023/10/05 00:04:39;;;;;;;;;;;;;;;;;;2203434;66;2309;-25
2023/10/05 00:07:11;;;;;;;;;;;;;;;;;;2199445;66;3896;-25
2023/10/05 00:09:43;;;;;;;;;;;;;;;;;;2201145;66;2427;-25
2023/10/05 00:12:19;;;;;;;;;;;;;;;;;;2201820;59;1802;-23
2023/10/05 00:17:40;;;;;;;;;;;;;;;;;;2204335;59;2831;-23
2023/10/05 00:20:34;;;;;;;;;;;;;;;;;;2199135;59;2645;-23
2023/10/05 00:23:08;;;;;;;;;;;;;;;;;;2199791;66;2360;-23
2023/10/05 00:25:39;;;;;;;;;;;;;;;;;;2200569;59;3906;-23
2023/10/05 00:28:11;;;;;;;;;;;;;;;;;;2203909;66;2087;-23
2023/10/05 00:30:41;;;;;;;;;;;;;;;;;;2203642;66;1985;-23
2023/10/05 00:33:11;;;;;;;;;;;;;;;;;;2203009;66;2148;-23
2023/10/05 00:35:41;;;;;;;;;;;;;;;;;;2203382;65;3964;-23
2023/10/05 00:38:12;;;;;;;;;;;;;;;;;;2203404;59;3409;-23
2023/10/05 00:40:50;;;;;;;;;;;;;;;;;;2201223;66;1998;-23
2023/10/05 00:45:56;;;;;;;;;;;;;;;;;;2203936;59;3000;-23
2023/10/05 00:51:06;;;;;;;;;;;;;;;;;;2204120;59;2370;-23
2023/10/05 00:53:36;;;;;;;;;;;;;;;;;;2201152;59;3470;-23
2023/10/05 00:56:12;;;;;;;;;;;;;;;;;;2203696;59;4102;-23
2023/10/05 00:58:44;;;;;;;;;;;;;;;;;;2204864;66;3598;-23
2023/10/05 01:01:15;;;;;;;;;;;;;;;;;;2199847;66;2000;-23
2023/10/05 01:06:48;;;;;;;;;;;;;;;;;;2204517;59;3101;-23
2023/10/05 01:14:52;;;;;;;;;;;;;;;;;;2202809;59;2722;-23
2023/10/05 01:17:26;;;;;;;;;;;;;;;;;;2201748;59;2298;-23
2023/10/05 01:19:58;;;;;;;;;;;;;;;;;;2202671;59;2524;-23
2023/10/05 01:22:33;;;;;;;;;;;;;;;;;;2201460;66;2365;-23
2023/10/05 01:25:04;;;;;;;;;;;;;;;;;;2198868;59;3541;-23
2023/10/05 01:27:38;;;;;;;;;;;;;;;;;;2204017;66;3512;-23
2023/10/05 01:30:12;;;;;;;;;;;;;;;;;;2203739;66;2551;-23
2023/10/05 01:32:42;;;;;;;;;;;;;;;;;;2201432;59;2288;-23
2023/10/05 01:35:13;;;;;;;;;;;;;;;;;;2202430;66;2861;-23
2023/10/05 01:37:44;;;;;;;;;;;;;;;;;;2204008;59;3934;-23
2023/10/05 01:42:52;;;;;;;;;;;;;;;;;;2203405;59;2793;-23
2023/10/05 01:45:24;;;;;;;;;;;;;;;;;;2196605;59;3140;-23
2023/10/05 01:47:54;;;;;;;;;;;;;;;;;;2202808;66;3018;-23
2023/10/05 01:50:27;;;;;;;;;;;;;;;;;;2200376;59;2960;-23
2023/10/05 01:53:15;;;;;;;;;;;;;;;;;;2203294;66;2940;-23
2023/10/05 01:55:45;;;;;;;;;;;;;;;;;;2204953;66;3728;-23
2023/10/05 01:58:34;;;;;;;;;;;;;;;;;;2204028;66;3538;-23
2023/10/05 02:01:06;;;;;;;;;;;;;;;;;;2201964;66;1952;-23
2023/10/05 02:03:38;;;;;;;;;;;;;;;;;;2204111;66;2901;-23
2023/10/05 02:06:11;;;;;;;;;;;;;;;;;;2203249;59;2512;-23
2023/10/05 02:08:42;;;;;;;;;;;;;;;;;;2204090;66;3004;-23
2023/10/05 02:11:17;;;;;;;;;;;;;;;;;;2202384;59;1796;-23
2023/10/05 02:13:48;;;;;;;;;;;;;;;;;;2199196;59;2626;-23
2023/10/05 02:16:20;;;;;;;;;;;;;;;;;;2202708;66;3340;-23
2023/10/05 02:18:51;;;;;;;;;;;;;;;;;;2204244;66;3335;-23
2023/10/05 02:21:32;;;;;;;;;;;;;;;;;;2203055;59;3456;-23
2023/10/05 02:24:18;;;;;;;;;;;;;;;;;;2204004;66;1949;-23
2023/10/05 02:29:26;;;;;;;;;;;;;;;;;;2199114;66;2147;-23
2023/10/05 02:34:42;;;;;;;;;;;;;;;;;;2204044;66;4131;-24
2023/10/05 02:37:12;;;;;;;;;;;;;;;;;;2202820;66;2575;-23
2023/10/05 02:39:43;;;;;;;;;;;;;;;;;;2204906;59;2701;-23
2023/10/05 02:42:14;;;;;;;;;;;;;;;;;;2199005;59;4174;-23
2023/10/05 02:44:49;;;;;;;;;;;;;;;;;;2204054;66;1834;-23
2023/10/05 02:47:23;;;;;;;;;;;;;;;;;;2198582;66;2039;-23
2023/10/05 02:49:53;;;;;;;;;;;;;;;;;;2197189;59;4094;-23
2023/10/05 02:52:25;;;;;;;;;;;;;;;;;;2202888;59;4225;-24
2023/10/05 02:54:55;;;;;;;;;;;;;;;;;;2203431;66;1803;-23
2023/10/05 02:57:26;;;;;;;;;;;;;;;;;;2203325;59;3022;-23
2023/10/05 02:59:56;;;;;;;;;;;;;;;;;;2200976;66;4281;-23
2023/10/05 03:02:26;;;;;;;;;;;;;;;;;;2205801;59;3526;-23
2023/10/05 03:04:58;;;;;;;;;;;;;;;;;;2206145;66;1751;-23
2023/10/05 03:07:31;;;;;;;;;;;;;;;;;;2204913;59;2300;-23
2023/10/05 03:10:01;;;;;;;;;;;;;;;;;;2205617;59;2432;-23
2023/10/05 03:12:32;;;;;;;;;;;;;;;;;;2203883;59;3835;-24
2023/10/05 03:15:06;;;;;;;;;;;;;;;;;;2206002;59;4093;-23
2023/10/05 03:17:37;;;;;;;;;;;;;;;;;;2203341;66;2491;-32
2023/10/05 03:20:19;;;;;;;;;;;;;;;;;;2205640;59;1953;-23
2023/10/05 03:22:54;;;;;;;;;;;;;;;;;;2207490;66;3904;-23
2023/10/05 03:25:25;;;;;;;;;;;;;;;;;;2204508;60;1834;-23
2023/10/05 03:27:56;;;;;;;;;;;;;;;;;;2205420;59;3793;-23
2023/10/05 03:30:30;;;;;;;;;;;;;;;;;;2202899;66;3800;-23
2023/10/05 03:33:01;;;;;;;;;;;;;;;;;;2206860;66;3005;-23
2023/10/05 03:35:34;;;;;;;;;;;;;;;;;;2206941;66;2459;-23
2023/10/05 03:38:08;;;;;;;;;;;;;;;;;;2204781;59;1819;-23
2023/10/05 03:40:43;;;;;;;;;;;;;;;;;;2203512;66;3394;-23
2023/10/05 03:43:13;;;;;;;;;;;;;;;;;;2205289;59;2654;-23
2023/10/05 03:45:44;;;;;;;;;;;;;;;;;;2203079;66;2441;-23
2023/10/05 03:48:16;;;;;;;;;;;;;;;;;;2204151;59;4194;-23
2023/10/05 03:50:46;;;;;;;;;;;;;;;;;;2203797;59;3447;-24
2023/10/05 03:53:16;;;;;;;;;;;;;;;;;;2203735;59;3056;-23
2023/10/05 03:55:47;;;;;;;;;;;;;;;;;;2204777;66;3607;-23
2023/10/05 03:58:17;;;;;;;;;;;;;;;;;;2201925;66;4288;-23
2023/10/05 04:00:49;;;;;;;;;;;;;;;;;;2202265;59;2560;-23
2023/10/05 04:03:24;;;;;;;;;;;;;;;;;;2199321;66;2358;-23
2023/10/05 04:05:54;;;;;;;;;;;;;;;;;;2200518;59;2633;-23
2023/10/05 04:08:27;;;;;;;;;;;;;;;;;;2204966;66;2918;-23
2023/10/05 04:10:59;;;;;;;;;;;;;;;;;;2205225;66;3792;-23
2023/10/05 04:13:32;;;;;;;;;;;;;;;;;;2203156;59;3809;-23
2023/10/05 04:16:09;;;;;;;;;;;;;;;;;;2200976;66;3569;-23
2023/10/05 04:18:40;;;;;;;;;;;;;;;;;;2202967;59;2228;-23
2023/10/05 04:21:10;;;;;;;;;;;;;;;;;;2202694;59;2030;-23
2023/10/05 04:23:42;;;;;;;;;;;;;;;;;;2203320;66;3329;-23
2023/10/05 04:26:13;;;;;;;;;;;;;;;;;;2202687;59;2043;-23
2023/10/05 04:28:52;;;;;;;;;;;;;;;;;;2203957;66;3480;-23
2023/10/05 04:31:25;;;;;;;;;;;;;;;;;;2203235;66;3120;-23
2023/10/05 04:33:56;;;;;;;;;;;;;;;;;;2203017;59;3953;-23
2023/10/05 04:36:26;;;;;;;;;;;;;;;;;;2202250;66;4405;-23
2023/10/05 04:38:56;;;;;;;;;;;;;;;;;;2202992;59;3026;-23
2023/10/05 04:41:39;;;;;;;;;;;;;;;;;;2199145;59;3952;-23
2023/10/05 04:44:12;;;;;;;;;;;;;;;;;;2203071;58;4426;-23
2023/10/05 04:46:49;;;;;;;;;;;;;;;;;;2203399;59;2604;-23
2023/10/05 04:49:20;;;;;;;;;;;;;;;;;;2203363;59;2483;-23
2023/10/05 04:51:51;;;;;;;;;;;;;;;;;;2202935;59;4375;-23
2023/10/05 04:54:25;;;;;;;;;;;;;;;;;;2199711;66;2375;-23
2023/10/05 04:57:12;;;;;;;;;;;;;;;;;;2203778;66;1883;-23
2023/10/05 04:59:58;;;;;;;;;;;;;;;;;;2203522;66;2709;-25
2023/10/05 05:05:53;;;;;;;;;;;;;;;;;;2203046;66;2555;-23
2023/10/05 05:08:23;;;;;;;;;;;;;;;;;;2200925;66;2982;-23
2023/10/05 05:10:53;;;;;;;;;;;;;;;;;;2203780;66;2634;-23
2023/10/05 05:13:27;;;;;;;;;;;;;;;;;;2203532;59;3458;-23
2023/10/05 05:15:57;;;;;;;;;;;;;;;;;;2203301;59;3724;-23
2023/10/05 05:18:31;;;;;;;;;;;;;;;;;;2202146;66;1828;-23
2023/10/05 05:21:01;;;;;;;;;;;;;;;;;;2205678;59;3107;-23
2023/10/05 05:23:32;;;;;;;;;;;;;;;;;;2204062;66;4923;-23
2023/10/05 05:26:03;;;;;;;;;;;;;;;;;;2200431;59;2717;-23
2023/10/05 05:28:34;;;;;;;;;;;;;;;;;;2202126;59;2313;-23
2023/10/05 05:31:14;;;;;;;;;;;;;;;;;;2203189;66;5080;-23
2023/10/05 05:33:50;;;;;;;;;;;;;;;;;;2204604;59;2519;-23
2023/10/05 05:36:21;;;;;;;;;;;;;;;;;;2201982;66;2387;-23
2023/10/05 05:38:51;;;;;;;;;;;;;;;;;;2203404;59;2007;-23
2023/10/05 05:41:27;;;;;;;;;;;;;;;;;;2203577;58;2077;-23
2023/10/05 05:44:02;;;;;;;;;;;;;;;;;;2204116;66;1794;-23
2023/10/05 05:46:33;;;;;;;;;;;;;;;;;;2199397;59;2597;-23
2023/10/05 05:49:07;;;;;;;;;;;;;;;;;;2200257;66;2596;-23
2023/10/05 05:51:38;;;;;;;;;;;;;;;;;;2197925;59;2926;-23
2023/10/05 05:54:08;;;;;;;;;;;;;;;;;;2203294;66;4090;-23
2023/10/05 05:56:42;;;;;;;;;;;;;;;;;;2203924;66;1940;-24
2023/10/05 05:59:13;;;;;;;;;;;;;;;;;;2202305;66;2016;-24
2023/10/05 06:01:43;;;;;;;;;;;;;;;;;;2200466;66;2627;-24
2023/10/05 06:04:13;;;;;;;;;;;;;;;;;;2202445;66;3374;-24
2023/10/05 06:06:44;;;;;;;;;;;;;;;;;;2200310;59;2670;-23
2023/10/05 06:09:19;;;;;;;;;;;;;;;;;;2200063;59;2743;-24
2023/10/05 06:11:49;;;;;;;;;;;;;;;;;;2203149;59;3368;-24
2023/10/05 06:14:19;;;;;;;;;;;;;;;;;;2199564;59;2201;-24
2023/10/05 06:16:52;;;;;;;;;;;;;;;;;;2203519;60;2601;-23
2023/10/05 06:19:23;;;;;;;;;;;;;;;;;;2203105;59;3800;-24
2023/10/05 06:21:53;;;;;;;;;;;;;;;;;;2202903;66;3010;-24
2023/10/05 06:24:24;;;;;;;;;;;;;;;;;;2203055;66;2704;-23
2023/10/05 06:26:54;;;;;;;;;;;;;;;;;;2208472;53;2313;-22
2023/10/05 06:29:25;;;;;;;;;;;;;;;;;;2204911;66;2465;-22
2023/10/05 06:31:55;;;;;;;;;;;;;;;;;;2204908;58;3475;-22
2023/10/05 06:34:26;;;;;;;;;;;;;;;;;;2205669;59;3997;-22
2023/10/05 06:36:56;;;;;;;;;;;;;;;;;;2208111;60;2403;-22
2023/10/05 06:39:28;;;;;;;;;;;;;;;;;;2203175;59;4579;-22
2023/10/05 06:41:58;;;;;;;;;;;;;;;;;;2209535;58;3591;-22
2023/10/05 06:44:29;;;;;;;;;;;;;;;;;;2202879;59;1877;-22
2023/10/05 06:46:59;;;;;;;;;;;;;;;;;;2202921;66;1998;-22
2023/10/05 06:49:29;;;;;;;;;;;;;;;;;;2205603;59;2931;-22
2023/10/05 06:52:05;;;;;;;;;;;;;;;;;;2205621;59;3229;-22
2023/10/05 06:54:36;;;;;;;;;;;;;;;;;;2206502;66;2922;-22
2023/10/05 06:57:06;;;;;;;;;;;;;;;;;;2202729;59;1870;-22
2023/10/05 06:59:38;;;;;;;;;;;;;;;;;;2205886;66;3930;-22
2023/10/05 07:02:08;;;;;;;;;;;;;;;;;;2205555;66;3001;-22
2023/10/05 07:04:38;;;;;;;;;;;;;;;;;;2204425;66;4060;-22
2023/10/05 07:07:09;;;;;;;;;;;;;;;;;;2205185;58;3045;-22
2023/10/05 07:09:39;;;;;;;;;;;;;;;;;;2206536;66;3530;-22
2023/10/05 07:12:09;;;;;;;;;;;;;;;;;;2206543;66;3525;-22
2023/10/05 07:14:40;;;;;;;;;;;;;;;;;;2201277;66;3660;-22
2023/10/05 07:17:10;;;;;;;;;;;;;;;;;;2205741;59;2904;-21
2023/10/05 07:19:42;;;;;;;;;;;;;;;;;;2208072;59;2220;-21
2023/10/05 07:22:12;;;;;;;;;;;;;;;;;;2202495;66;1772;-22
2023/10/05 07:24:43;;;;;;;;;;;;;;;;;;2200024;66;2255;-22
2023/10/05 07:27:13;;;;;;;;;;;;;;;;;;2207474;58;3765;-21
2023/10/05 07:29:46;;;;;;;;;;;;;;;;;;2205147;59;2132;-22
2023/10/05 07:32:16;;;;;;;;;;;;;;;;;;2204938;59;3963;-22
2023/10/05 07:34:47;;;;;;;;;;;;;;;;;;2204477;66;3507;-22
2023/10/05 07:37:19;;;;;;;;;;;;;;;;;;2206630;66;3914;-22
2023/10/05 07:39:51;;;;;;;;;;;;;;;;;;2205947;59;3748;-21
2023/10/05 07:42:22;;;;;;;;;;;;;;;;;;2203480;66;2706;-22
2023/10/05 07:44:52;;;;;;;;;;;;;;;;;;2209792;59;2393;-22
2023/10/05 07:47:24;;;;;;;;;;;;;;;;;;2206342;66;2920;-22
2023/10/05 07:49:55;;;;;;;;;;;;;;;;;;2207738;66;3000;-22
2023/10/05 07:52:25;;;;;;;;;;;;;;;;;;2207388;59;3720;-22
2023/10/05 07:54:55;;;;;;;;;;;;;;;;;;2207737;66;4073;-22
2023/10/05 07:57:26;;;;;;;;;;;;;;;;;;2206789;66;4390;-22
2023/10/05 07:59:56;;;;;;;;;;;;;;;;;;2205731;66;1989;-22
2023/10/05 08:02:26;;;;;;;;;;;;;;;;;;2202328;66;1824;-22
2023/10/05 08:04:56;;;;;;;;;;;;;;;;;;2206052;66;3844;-22
2023/10/05 08:07:26;;;;;;;;;;;;;;;;;;2204097;59;3698;-22
2023/10/05 08:09:59;;;;;;;;;;;;;;;;;;2206326;66;1953;-22
2023/10/05 08:12:29;;;;;;;;;;;;;;;;;;2206495;59;5244;-22
2023/10/05 08:14:59;;;;;;;;;;;;;;;;;;2203196;60;4184;-22
2023/10/05 08:17:29;;;;;;;;;;;;;;;;;;2207534;59;3965;-22
2023/10/05 08:20:00;;;;;;;;;;;;;;;;;;2202945;66;3008;-22
2023/10/05 08:22:30;;;;;;;;;;;;;;;;;;2205181;59;2012;-22
2023/10/05 08:25:07;;;;;;;;;;;;;;;;;;2206364;66;3548;-22
2023/10/05 08:27:42;;;;;;;;;;;;;;;;;;2205886;58;3896;-22
2023/10/05 08:30:12;;;;;;;;;;;;;;;;;;2207271;66;4176;-22
2023/10/05 08:32:47;;;;;;;;;;;;;;;;;;2205329;58;4305;-23
2023/10/05 08:35:18;;;;;;;;;;;;;;;;;;2205447;66;2808;-22
2023/10/05 08:37:53;;;;;;;;;;;;;;;;;;2208242;59;2591;-22
2023/10/05 08:43:13;;;;;;;;;;;;;;;;;;2209269;59;3892;-22
2023/10/05 08:45:47;;;;;;;;;;;;;;;;;;2200607;59;3720;-22
2023/10/05 08:48:20;;;;;;;;;;;;;;;;;;2206805;59;2056;-22
2023/10/05 08:50:53;;;;;;;;;;;;;;;;;;2206270;59;2198;-22
2023/10/05 08:53:23;;;;;;;;;;;;;;;;;;2205050;66;4781;-22
2023/10/05 08:55:54;;;;;;;;;;;;;;;;;;2206531;66;2195;-22
2023/10/05 08:58:28;;;;;;;;;;;;;;;;;;2204698;59;1805;-22
2023/10/05 09:01:21;;;;;;;;;;;;;;;;;;2208847;66;3720;-22
2023/10/05 09:04:01;;;;;;;;;;;;;;;;;;2206123;66;1949;-22
2023/10/05 09:06:43;;;;;;;;;;;;;;;;;;2206078;66;4044;-22
2023/10/05 09:09:14;;;;;;;;;;;;;;;;;;2206838;66;2523;-23
2023/10/05 09:11:44;;;;;;;;;;;;;;;;;;2206504;59;4113;-22
2023/10/05 09:14:20;;;;;;;;;;;;;;;;;;2210237;58;2428;-22
2023/10/05 09:16:55;;;;;;;;;;;;;;;;;;2200825;66;4210;-22
2023/10/05 09:19:27;;;;;;;;;;;;;;;;;;2205428;59;3066;-22
2023/10/05 09:24:33;;;;;;;;;;;;;;;;;;2205521;66;2106;-23
2023/10/05 09:27:12;;;;;;;;;;;;;;;;;;2203477;59;2678;-22
2023/10/05 09:29:43;;;;;;;;;;;;;;;;;;2204834;58;4255;-22
2023/10/05 09:32:21;;;;;;;;;;;;;;;;;;2206710;59;2060;-23
2023/10/05 09:34:55;;;;;;;;;;;;;;;;;;2205874;66;3320;-23
2023/10/05 09:37:27;;;;;;;;;;;;;;;;;;2204650;64;3242;-23
2023/10/05 09:39:59;;;;;;;;;;;;;;;;;;2206754;59;3973;-23
2023/10/05 09:42:34;;;;;;;;;;;;;;;;;;2199697;59;2431;-23
2023/10/05 09:45:13;;;;;;;;;;;;;;;;;;2206161;59;2123;-23
2023/10/05 09:47:46;;;;;;;;;;;;;;;;;;2202829;66;4208;-23
2023/10/05 09:50:17;;;;;;;;;;;;;;;;;;2207787;59;3984;-23
2023/10/05 09:52:48;;;;;;;;;;;;;;;;;;2202032;59;1813;-23
2023/10/05 09:55:18;;;;;;;;;;;;;;;;;;2206982;66;2651;-23
2023/10/05 09:57:52;;;;;;;;;;;;;;;;;;2201242;66;3836;-23
2023/10/05 10:00:47;;;;;;;;;;;;;;;;;;2207446;66;3171;-23
2023/10/05 10:03:17;;;;;;;;;;;;;;;;;;2208094;66;2678;-23
2023/10/05 10:05:51;;;;;;;;;;;;;;;;;;2206844;59;2205;-23
2023/10/05 10:08:24;;;;;;;;;;;;;;;;;;2208919;59;3767;-23
2023/10/05 10:11:07;;;;;;;;;;;;;;;;;;2206242;66;4140;-23
2023/10/05 10:13:37;;;;;;;;;;;;;;;;;;2205524;59;3993;-23
2023/10/05 10:16:21;;;;;;;;;;;;;;;;;;2205189;66;2632;-23
2023/10/05 10:18:52;;;;;;;;;;;;;;;;;;2205191;59;3666;-23
2023/10/05 10:21:32;;;;;;;;;;;;;;;;;;2206434;59;1991;-23
2023/10/05 10:24:06;;;;;;;;;;;;;;;;;;2207420;58;1838;-23
2023/10/05 10:26:42;;;;;;;;;;;;;;;;;;2205597;59;1735;-23
2023/10/05 10:29:16;;;;;;;;;;;;;;;;;;2207601;58;2679;-23
2023/10/05 10:32:07;;;;;;;;;;;;;;;;;;2201602;59;3910;-21
2023/10/05 10:34:49;;;;;;;;;;;;;;;;;;2207340;59;2475;-21
2023/10/05 10:37:42;;;;;;;;;;;;;;;;;;2201853;66;4669;-21
2023/10/05 10:42:54;;;;;;;;;;;;;;;;;;2204752;59;3348;-21
2023/10/05 10:45:28;;;;;;;;;;;;;;;;;;2200530;58;2317;-21
2023/10/05 10:47:59;;;;;;;;;;;;;;;;;;2207111;66;3964;-21
2023/10/05 10:50:31;;;;;;;;;;;;;;;;;;2204997;66;2571;-21
2023/10/05 10:53:05;;;;;;;;;;;;;;;;;;2207663;59;2578;-21
2023/10/05 10:55:42;;;;;;;;;;;;;;;;;;2205587;66;2330;-21
2023/10/05 10:58:13;;;;;;;;;;;;;;;;;;2204792;66;2890;-23
2023/10/05 11:00:57;;;;;;;;;;;;;;;;;;2201538;66;3838;-23
2023/10/05 11:03:36;;;;;;;;;;;;;;;;;;2206202;66;4093;-21
2023/10/05 11:06:09;;;;;;;;;;;;;;;;;;2199784;59;2349;-21
2023/10/05 11:08:45;;;;;;;;;;;;;;;;;;2206005;66;2680;-21
2023/10/05 11:11:15;;;;;;;;;;;;;;;;;;2207035;58;2549;-21
2023/10/05 11:14:05;;;;;;;;;;;;;;;;;;2205019;59;3995;-21
2023/10/05 11:16:45;;;;;;;;;;;;;;;;;;2200612;66;3670;-21
2023/10/05 11:19:24;;;;;;;;;;;;;;;;;;2206766;59;2997;-21
2023/10/05 11:21:54;;;;;;;;;;;;;;;;;;2206939;60;3843;-21
2023/10/05 11:24:26;;;;;;;;;;;;;;;;;;2203255;66;1990;-21
2023/10/05 11:29:42;;;;;;;;;;;;;;;;;;2206429;59;3081;-21
2023/10/05 11:32:12;;;;;;;;;;;;;;;;;;2206834;59;2416;-21
2023/10/05 11:34:44;;;;;;;;;;;;;;;;;;2205951;66;2655;-21
2023/10/05 11:37:16;;;;;;;;;;;;;;;;;;2205682;66;2140;-21
2023/10/05 11:39:49;;;;;;;;;;;;;;;;;;2203860;59;4215;-21
2023/10/05 11:42:25;;;;;;;;;;;;;;;;;;2201943;59;3838;-21
2023/10/05 11:44:59;;;;;;;;;;;;;;;;;;2204987;59;2514;-21
2023/10/05 11:47:35;;;;;;;;;;;;;;;;;;2202089;66;2801;-20
2023/10/05 11:50:08;;;;;;;;;;;;;;;;;;2206557;58;1766;-19
2023/10/05 11:52:39;;;;;;;;;;;;;;;;;;2204185;58;2884;-19
2023/10/05 11:55:14;;;;;;;;;;;;;;;;;;2205504;66;2725;-19
2023/10/05 11:57:45;;;;;;;;;;;;;;;;;;2205056;66;3868;-19
2023/10/05 12:00:16;;;;;;;;;;;;;;;;;;2204688;63;3592;-19
2023/10/05 12:02:47;;;;;;;;;;;;;;;;;;2203880;66;2081;-19
2023/10/05 12:05:17;;;;;;;;;;;;;;;;;;2205261;66;3465;-19
2023/10/05 12:07:47;;;;;;;;;;;;;;;;;;2204591;59;2582;-20
2023/10/05 12:10:19;;;;;;;;;;;;;;;;;;2205875;66;4467;-26
2023/10/05 12:12:50;;;;;;;;;;;;;;;;;;2204388;59;4082;-19
2023/10/05 12:15:23;;;;;;;;;;;;;;;;;;2201370;58;3405;-19
2023/10/05 12:17:53;;;;;;;;;;;;;;;;;;2202030;59;2612;-19
2023/10/05 12:20:24;;;;;;;;;;;;;;;;;;2201542;59;3176;-18
2023/10/05 12:22:58;;;;;;;;;;;;;;;;;;2206809;66;2920;-19
2023/10/05 12:25:28;;;;;;;;;;;;;;;;;;2204993;66;1710;-20
2023/10/05 12:27:59;;;;;;;;;;;;;;;;;;2214482;53;2531;-25
2023/10/05 12:30:31;;;;;;;;;;;;;;;;;;2224548;58;2414;-25
2023/10/05 12:33:03;;;;;;;;;;;;;;;;;;2225330;58;1848;-25
2023/10/05 12:35:36;;;;;;;;;;;;;;;;;;2224375;59;3433;-25
2023/10/05 12:38:06;;;;;;;;;;;;;;;;;;2216846;58;2992;-25
2023/10/05 12:40:41;;;;;;;;;;;;;;;;;;2220156;66;3181;-24
2023/10/05 12:43:15;;;;;;;;;;;;;;;;;;2221619;58;2740;-24
2023/10/05 12:45:46;;;;;;;;;;;;;;;;;;2217284;58;3792;-24
2023/10/05 12:48:17;;;;;;;;;;;;;;;;;;2218144;58;2354;-24
2023/10/05 12:50:47;;;;;;;;;;;;;;;;;;2217217;58;3620;-24
2023/10/05 12:53:18;;;;;;;;;;;;;;;;;;2221973;58;2937;-24
2023/10/05 12:55:48;;;;;;;;;;;;;;;;;;2220432;66;2228;-24
2023/10/05 12:58:18;;;;;;;;;;;;;;;;;;2220613;59;2610;-25
2023/10/05 13:00:48;;;;;;;;;;;;;;;;;;2216079;66;1991;-24
2023/10/05 13:03:19;;;;;;;;;;;;;;;;;;2217605;59;2080;-25
2023/10/05 13:05:51;;;;;;;;;;;;;;;;;;2220331;58;2858;-25
2023/10/05 13:08:21;;;;;;;;;;;;;;;;;;2217233;59;2113;-25
2023/10/05 13:10:52;;;;;;;;;;;;;;;;;;2220161;59;2627;-24
2023/10/05 13:13:23;;;;;;;;;;;;;;;;;;2221541;58;2759;-23
2023/10/05 13:15:54;;;;;;;;;;;;;;;;;;2220321;66;3630;-23
2023/10/05 13:18:25;;;;;;;;;;;;;;;;;;2219227;58;2227;-23
2023/10/05 13:20:56;;;;;;;;;;;;;;;;;;2221864;58;3212;-23
2023/10/05 13:23:30;;;;;;;;;;;;;;;;;;2218206;59;3905;-23
2023/10/05 13:26:01;;;;;;;;;;;;;;;;;;2221043;58;3524;-24
2023/10/05 13:28:31;;;;;;;;;;;;;;;;;;2217886;58;2215;-23
2023/10/05 13:31:06;;;;;;;;;;;;;;;;;;2218359;66;1853;-23
2023/10/05 13:33:39;;;;;;;;;;;;;;;;;;2220484;59;4099;-24
2023/10/05 13:36:12;;;;;;;;;;;;;;;;;;2221442;66;1810;-24
2023/10/05 13:38:43;;;;;;;;;;;;;;;;;;2219761;58;3025;-24
2023/10/05 13:41:13;;;;;;;;;;;;;;;;;;2217320;58;2565;-24
2023/10/05 13:43:44;;;;;;;;;;;;;;;;;;2220907;66;2975;-23
2023/10/05 13:46:16;;;;;;;;;;;;;;;;;;2218065;58;3351;-23
2023/10/05 13:48:48;;;;;;;;;;;;;;;;;;2217083;59;2181;-24
2023/10/05 13:51:19;;;;;;;;;;;;;;;;;;2218359;58;1651;-23
2023/10/05 13:53:56;;;;;;;;;;;;;;;;;;2213958;59;2341;-23
2023/10/05 13:56:31;;;;;;;;;;;;;;;;;;2221381;66;3635;-23
2023/10/05 13:59:06;;;;;;;;;;;;;;;;;;2217202;66;4343;-23
2023/10/05 14:01:38;;;;;;;;;;;;;;;;;;2220689;59;3569;-23
2023/10/05 14:04:09;;;;;;;;;;;;;;;;;;2219831;66;2711;-23
2023/10/05 14:06:40;;;;;;;;;;;;;;;;;;2221631;58;3273;-23
2023/10/05 14:09:10;;;;;;;;;;;;;;;;;;2221452;66;1950;-23
2023/10/05 14:11:41;;;;;;;;;;;;;;;;;;2220161;58;2824;-23
2023/10/05 14:14:11;;;;;;;;;;;;;;;;;;2221381;58;2093;-23
2023/10/05 14:16:54;;;;;;;;;;;;;;;;;;2220716;66;3082;-23
2023/10/05 14:19:27;;;;;;;;;;;;;;;;;;2220969;58;2247;-23
2023/10/05 14:22:03;;;;;;;;;;;;;;;;;;2220559;66;2681;-23
2023/10/05 14:24:34;;;;;;;;;;;;;;;;;;2218996;59;2057;-23
2023/10/05 14:27:05;;;;;;;;;;;;;;;;;;2216715;58;2753;-23
2023/10/05 14:29:36;;;;;;;;;;;;;;;;;;2217531;58;2125;-23
2023/10/05 14:32:06;;;;;;;;;;;;;;;;;;2217728;58;1783;-23
2023/10/05 14:34:36;;;;;;;;;;;;;;;;;;2221063;66;2696;-23
2023/10/05 14:37:07;;;;;;;;;;;;;;;;;;2218389;59;1846;-23
2023/10/05 14:39:39;;;;;;;;;;;;;;;;;;2220521;58;2709;-23
2023/10/05 14:42:10;;;;;;;;;;;;;;;;;;2220696;58;2400;-23
2023/10/05 14:44:42;;;;;;;;;;;;;;;;;;2217104;59;2894;-24
2023/10/05 14:47:13;;;;;;;;;;;;;;;;;;2221777;66;3790;-23
2023/10/05 14:49:44;;;;;;;;;;;;;;;;;;2214925;58;3783;-23
2023/10/05 14:52:16;;;;;;;;;;;;;;;;;;2217287;58;1813;-23
2023/10/05 14:54:47;;;;;;;;;;;;;;;;;;2220772;66;2871;-23
2023/10/05 14:57:17;;;;;;;;;;;;;;;;;;2218044;66;4368;-23
2023/10/05 14:59:49;;;;;;;;;;;;;;;;;;2221122;59;4023;-23
2023/10/05 15:02:19;;;;;;;;;;;;;;;;;;2220935;59;1937;-23
2023/10/05 15:04:50;;;;;;;;;;;;;;;;;;2219955;66;2693;-23
2023/10/05 15:07:20;;;;;;;;;;;;;;;;;;2221356;58;2004;-23
2023/10/05 15:09:50;;;;;;;;;;;;;;;;;;2220450;66;2712;-23
2023/10/05 15:12:21;;;;;;;;;;;;;;;;;;2218348;58;2649;-23
2023/10/05 15:14:52;;;;;;;;;;;;;;;;;;2220508;58;3123;-23
2023/10/05 15:17:22;;;;;;;;;;;;;;;;;;2221742;58;2420;-23
2023/10/05 15:19:52;;;;;;;;;;;;;;;;;;2217610;66;1933;-23
2023/10/05 15:22:27;;;;;;;;;;;;;;;;;;2221193;66;4358;-23
2023/10/05 15:24:57;;;;;;;;;;;;;;;;;;2216883;59;2986;-23
2023/10/05 15:27:29;;;;;;;;;;;;;;;;;;2217824;58;2258;-23
2023/10/05 15:30:00;;;;;;;;;;;;;;;;;;2217139;66;3273;-23
2023/10/05 15:32:30;;;;;;;;;;;;;;;;;;2217524;58;1949;-23
2023/10/05 15:35:01;;;;;;;;;;;;;;;;;;2219966;66;1824;-23
2023/10/05 15:37:31;;;;;;;;;;;;;;;;;;2221301;58;2666;-23
2023/10/05 15:40:01;;;;;;;;;;;;;;;;;;2216349;58;3068;-23
2023/10/05 15:42:32;;;;;;;;;;;;;;;;;;2216740;58;3520;-23
2023/10/05 15:45:09;;;;;;;;;;;;;;;;;;2219827;58;1877;-23
2023/10/05 15:47:43;;;;;;;;;;;;;;;;;;2220546;58;4090;-23
2023/10/05 15:50:14;;;;;;;;;;;;;;;;;;2218397;58;1811;-23
2023/10/05 15:52:48;;;;;;;;;;;;;;;;;;2217334;58;2260;-23
2023/10/05 15:55:19;;;;;;;;;;;;;;;;;;2218086;66;1675;-23
2023/10/05 15:57:51;;;;;;;;;;;;;;;;;;2220166;66;2983;-23
2023/10/05 16:00:25;;;;;;;;;;;;;;;;;;2220536;59;4096;-23
2023/10/05 16:02:56;;;;;;;;;;;;;;;;;;2220998;58;1866;-23
2023/10/05 16:05:28;;;;;;;;;;;;;;;;;;2218641;58;2851;-23
2023/10/05 16:08:01;;;;;;;;;;;;;;;;;;2217124;59;2143;-23
2023/10/05 16:10:32;;;;;;;;;;;;;;;;;;2221555;66;1626;-23
2023/10/05 16:13:07;;;;;;;;;;;;;;;;;;2221206;58;2917;-23
2023/10/05 16:15:41;;;;;;;;;;;;;;;;;;2222479;58;1839;-23
2023/10/05 16:18:11;;;;;;;;;;;;;;;;;;2221953;58;4249;-23
2023/10/05 16:20:41;;;;;;;;;;;;;;;;;;2221028;58;2307;-23
2023/10/05 16:23:12;;;;;;;;;;;;;;;;;;2219214;59;3768;-23
2023/10/05 16:25:42;;;;;;;;;;;;;;;;;;2218655;66;2059;-23
2023/10/05 16:28:12;;;;;;;;;;;;;;;;;;2218920;58;3945;-23
2023/10/05 16:30:43;;;;;;;;;;;;;;;;;;2220778;58;1817;-23
2023/10/05 16:33:14;;;;;;;;;;;;;;;;;;2222061;66;1910;-23
2023/10/05 16:35:45;;;;;;;;;;;;;;;;;;2220577;66;3449;-23
2023/10/05 16:38:18;;;;;;;;;;;;;;;;;;2221746;66;2707;-25
2023/10/05 16:40:48;;;;;;;;;;;;;;;;;;2218472;66;3133;-23
2023/10/05 16:43:20;;;;;;;;;;;;;;;;;;2221946;58;2283;-23
2023/10/05 16:45:50;;;;;;;;;;;;;;;;;;2217727;58;2684;-23
2023/10/05 16:48:21;;;;;;;;;;;;;;;;;;2223628;59;1806;-23
2023/10/05 16:50:51;;;;;;;;;;;;;;;;;;2222301;58;2518;-23
2023/10/05 16:53:25;;;;;;;;;;;;;;;;;;2223395;66;1811;-23
2023/10/05 16:55:56;;;;;;;;;;;;;;;;;;2217155;59;2888;-23
2023/10/05 16:58:29;;;;;;;;;;;;;;;;;;2222040;66;2515;-23
2023/10/05 17:00:59;;;;;;;;;;;;;;;;;;2221060;59;1936;-23
2023/10/05 17:03:29;;;;;;;;;;;;;;;;;;2217904;66;3211;-23
2023/10/05 17:05:59;;;;;;;;;;;;;;;;;;2221113;58;2355;-23
2023/10/05 17:08:32;;;;;;;;;;;;;;;;;;2221648;66;4284;-24
2023/10/05 17:11:02;;;;;;;;;;;;;;;;;;2220387;66;2835;-23
2023/10/05 17:13:32;;;;;;;;;;;;;;;;;;2221497;58;4129;-23
2023/10/05 17:16:03;;;;;;;;;;;;;;;;;;2221324;66;2206;-24
2023/10/05 17:18:33;;;;;;;;;;;;;;;;;;2221569;58;3231;-22
2023/10/05 17:21:03;;;;;;;;;;;;;;;;;;2220919;58;1999;-22
2023/10/05 17:23:34;;;;;;;;;;;;;;;;;;2218397;59;2509;-24
2023/10/05 17:26:05;;;;;;;;;;;;;;;;;;2216742;58;4259;-25
2023/10/05 17:28:35;;;;;;;;;;;;;;;;;;2218169;58;1764;-25
2023/10/05 17:31:05;;;;;;;;;;;;;;;;;;2214410;58;3417;-25
2023/10/05 17:33:35;;;;;;;;;;;;;;;;;;2221165;59;3651;-25
2023/10/05 17:36:05;;;;;;;;;;;;;;;;;;2220479;66;2117;-25
2023/10/05 17:38:36;;;;;;;;;;;;;;;;;;2222226;58;2428;-25
2023/10/05 17:41:08;;;;;;;;;;;;;;;;;;2220624;58;4081;-24
2023/10/05 17:43:38;;;;;;;;;;;;;;;;;;2220103;66;3238;-25
2023/10/05 17:46:08;;;;;;;;;;;;;;;;;;2214206;58;3450;-24
2023/10/05 17:48:38;;;;;;;;;;;;;;;;;;2217961;66;3798;-24
2023/10/05 17:51:11;;;;;;;;;;;;;;;;;;2220323;58;1876;-25
2023/10/05 17:53:41;;;;;;;;;;;;;;;;;;2222008;66;2536;-24
2023/10/05 17:56:11;;;;;;;;;;;;;;;;;;2215015;66;3698;-24
2023/10/05 17:58:42;;;;;;;;;;;;;;;;;;2217415;58;2793;-25
2023/10/05 18:01:17;;;;;;;;;;;;;;;;;;2217953;66;3067;-25
2023/10/05 18:03:47;;;;;;;;;;;;;;;;;;2218588;66;2130;-25
2023/10/05 18:06:17;;;;;;;;;;;;;;;;;;2219941;58;1776;-25
2023/10/05 18:08:47;;;;;;;;;;;;;;;;;;2221138;66;2477;-24
2023/10/05 18:11:22;;;;;;;;;;;;;;;;;;2222036;58;3479;-25
2023/10/05 18:13:52;;;;;;;;;;;;;;;;;;2214904;58;3814;-25
2023/10/05 18:16:22;;;;;;;;;;;;;;;;;;2221947;66;3208;-25
2023/10/05 18:18:53;;;;;;;;;;;;;;;;;;2220530;58;3446;-24
2023/10/05 18:21:23;;;;;;;;;;;;;;;;;;2221498;58;3474;-25